Time;durP1;ratioP1;P1;durP2;ratioP2;P2;SDS_P1;SDS_P2;PMS_P1;PMS_P2;Temp;Humidity;BMP_temperature;BMP_pressure;BME280_temperature;BME280_humidity;BME280_pressure;Samples;Min_cycle;Max_cycle;Signal;HPM_P1;HPM_P2
2023/05/20 00:00:49;;;;;;;4.90;3.10;;;10.40;99.90;;;;;;5009595;28;20089;-80
2023/05/20 00:03:20;;;;;;;5.97;3.55;;;10.40;99.90;;;;;;5019591;28;20522;-80
2023/05/20 00:05:51;;;;;;;6.85;3.00;;;10.40;99.90;;;;;;5012033;28;20514;-80
2023/05/20 00:08:20;;;;;;;8.25;2.72;;;10.30;99.90;;;;;;4991548;28;20054;-79
2023/05/20 00:10:47;;;;;;;3.20;2.65;;;10.30;99.90;;;;;;5011151;28;20112;-80
2023/05/20 00:13:15;;;;;;;6.38;2.70;;;10.30;99.90;;;;;;4976397;28;20470;-81
2023/05/20 00:15:43;;;;;;;4.43;3.17;;;10.30;99.90;;;;;;5011613;28;20057;-80
2023/05/20 00:18:10;;;;;;;5.95;3.25;;;10.20;99.90;;;;;;5010508;28;20072;-81
2023/05/20 00:20:38;;;;;;;6.15;4.30;;;10.30;99.90;;;;;;4977272;28;20540;-81
2023/05/20 00:23:05;;;;;;;7.85;3.30;;;10.20;99.90;;;;;;5010581;28;20058;-80
2023/05/20 00:25:34;;;;;;;6.82;3.53;;;10.30;99.90;;;;;;4991700;28;20046;-81
2023/05/20 00:28:02;;;;;;;8.10;4.22;;;10.20;99.90;;;;;;4993610;28;20469;-80
2023/05/20 00:30:29;;;;;;;7.45;3.22;;;10.20;99.90;;;;;;4980218;28;20537;-80
2023/05/20 00:32:57;;;;;;;5.10;3.40;;;10.20;99.90;;;;;;4993073;28;20053;-80
2023/05/20 00:35:24;;;;;;;8.23;3.38;;;10.20;99.90;;;;;;4991074;28;20097;-80
2023/05/20 00:37:52;;;;;;;4.65;2.95;;;10.20;99.90;;;;;;5011537;28;20046;-80
2023/05/20 00:40:20;;;;;;;9.45;3.78;;;10.20;99.90;;;;;;4997156;28;20058;-80
2023/05/20 00:42:49;;;;;;;6.25;3.38;;;10.20;99.90;;;;;;4976693;28;20050;-80
2023/05/20 00:45:17;;;;;;;5.05;3.33;;;10.20;99.90;;;;;;4992486;28;20049;-80
2023/05/20 00:47:45;;;;;;;6.55;3.53;;;10.20;99.90;;;;;;4992800;28;20057;-80
2023/05/20 00:50:13;;;;;;;5.78;3.35;;;10.20;99.90;;;;;;4993331;28;20502;-80
2023/05/20 00:52:43;;;;;;;8.15;3.50;;;10.20;99.90;;;;;;5009241;28;20046;-80
2023/05/20 00:55:11;;;;;;;10.05;4.20;;;10.30;99.90;;;;;;4958392;28;20054;-79
2023/05/20 00:57:39;;;;;;;8.68;3.47;;;10.20;99.90;;;;;;4990197;28;20309;-79
2023/05/20 01:00:10;;;;;;;10.70;3.78;;;10.20;99.90;;;;;;4977571;28;20537;-79
2023/05/20 01:02:38;;;;;;;7.90;3.83;;;10.10;99.90;;;;;;5017753;28;20569;-80
2023/05/20 01:05:07;;;;;;;8.32;3.78;;;10.10;99.90;;;;;;4995056;28;20128;-78
2023/05/20 01:07:35;;;;;;;7.43;3.38;;;10.10;99.90;;;;;;4976480;28;20053;-80
2023/05/20 01:10:04;;;;;;;12.02;3.17;;;10.00;99.90;;;;;;5010941;28;20057;-79
2023/05/20 01:12:38;;;;;;;4.47;3.17;;;10.00;99.90;;;;;;4992458;28;20056;-80
2023/05/20 01:15:10;;;;;;;5.03;3.47;;;10.00;99.90;;;;;;4983140;28;20050;-80
2023/05/20 01:17:45;;;;;;;5.25;3.55;;;9.90;99.90;;;;;;5001245;28;20128;-79
2023/05/20 01:20:14;;;;;;;5.32;4.05;;;9.90;99.90;;;;;;4991812;28;20100;-74
2023/05/20 01:22:49;;;;;;;6.00;3.25;;;9.80;99.90;;;;;;4992541;28;20050;-74
2023/05/20 01:25:17;;;;;;;7.97;3.28;;;9.80;99.90;;;;;;4997241;28;20104;-75
2023/05/20 01:27:47;;;;;;;7.07;3.60;;;9.80;99.90;;;;;;5010495;28;20069;-74
2023/05/20 01:30:16;;;;;;;20.40;10.25;;;9.70;99.90;;;;;;4991149;28;20423;-74
2023/05/20 01:32:48;;;;;;;6.63;4.60;;;9.70;99.90;;;;;;4996995;28;20041;-75
2023/05/20 01:35:17;;;;;;;7.10;3.85;;;9.70;99.90;;;;;;5004427;28;20053;-75
2023/05/20 01:37:45;;;;;;;4.10;2.75;;;9.80;99.90;;;;;;4991977;28;20241;-75
2023/05/20 01:40:16;;;;;;;7.47;2.97;;;9.80;99.90;;;;;;4975127;28;20050;-75
2023/05/20 01:42:44;;;;;;;4.95;3.28;;;9.80;99.90;;;;;;4989078;28;20050;-75
2023/05/20 01:45:12;;;;;;;6.47;3.65;;;9.80;99.90;;;;;;4986074;28;20091;-75
2023/05/20 01:47:40;;;;;;;4.30;3.10;;;9.70;99.90;;;;;;4990307;28;20060;-75
2023/05/20 01:50:09;;;;;;;9.27;3.75;;;9.70;99.90;;;;;;4993112;28;20050;-76
2023/05/20 01:52:36;;;;;;;8.77;3.70;;;9.70;99.90;;;;;;4991153;28;20049;-75
2023/05/20 01:55:04;;;;;;;5.57;3.90;;;9.70;99.90;;;;;;4991957;28;20096;-75
2023/05/20 01:57:34;;;;;;;9.57;3.72;;;9.80;99.90;;;;;;5006629;28;20129;-75
2023/05/20 02:00:02;;;;;;;6.80;3.60;;;9.80;99.90;;;;;;4978929;28;20104;-75
2023/05/20 02:02:41;;;;;;;5.63;3.03;;;9.80;99.90;;;;;;5018362;28;20060;-75
2023/05/20 02:05:11;;;;;;;6.82;3.67;;;9.80;99.90;;;;;;5008845;28;20104;-75
2023/05/20 02:07:39;;;;;;;6.68;3.13;;;9.80;99.90;;;;;;4975581;28;20053;-75
2023/05/20 02:10:08;;;;;;;7.47;3.17;;;9.90;99.90;;;;;;5011720;28;20054;-75
2023/05/20 02:12:39;;;;;;;4.43;2.60;;;9.90;99.90;;;;;;4993009;28;20045;-75
2023/05/20 02:15:09;;;;;;;9.70;3.70;;;9.90;99.90;;;;;;5008890;28;20069;-75
2023/05/20 02:17:38;;;;;;;6.75;2.88;;;9.90;99.90;;;;;;5010425;28;20141;-75
2023/05/20 02:20:25;;;;;;;5.50;2.97;;;10.00;99.90;;;;;;4998859;28;20095;-75
2023/05/20 02:22:53;;;;;;;4.70;3.08;;;10.00;99.90;;;;;;5015754;28;20061;-74
2023/05/20 02:25:20;;;;;;;5.07;2.60;;;10.10;99.90;;;;;;4992248;28;20061;-76
2023/05/20 02:27:50;;;;;;;8.95;3.28;;;10.10;99.90;;;;;;5013934;28;20442;-76
2023/05/20 02:30:18;;;;;;;8.30;2.72;;;10.10;99.90;;;;;;4992018;28;20042;-76
2023/05/20 02:32:46;;;;;;;5.40;2.80;;;10.10;99.90;;;;;;5008785;28;20069;-76
2023/05/20 02:35:13;;;;;;;3.75;2.97;;;10.10;99.90;;;;;;5011325;28;20077;-76
2023/05/20 02:37:43;;;;;;;3.88;2.95;;;10.10;99.90;;;;;;5010557;28;20053;-75
2023/05/20 02:40:11;;;;;;;4.80;3.03;;;10.20;99.90;;;;;;4992687;28;20510;-75
2023/05/20 02:42:40;;;;;;;7.97;3.67;;;10.20;99.90;;;;;;4991198;28;20041;-74
2023/05/20 02:45:10;;;;;;;7.78;4.18;;;10.20;99.90;;;;;;4992558;28;20093;-74
2023/05/20 02:47:39;;;;;;;7.45;3.67;;;10.20;99.90;;;;;;4994634;28;20565;-74
2023/05/20 02:50:07;;;;;;;5.13;3.95;;;10.30;99.90;;;;;;4993233;28;20096;-74
2023/05/20 02:52:36;;;;;;;5.03;3.55;;;10.30;99.90;;;;;;4974752;28;20058;-74
2023/05/20 02:55:06;;;;;;;6.13;3.25;;;10.30;99.90;;;;;;4975015;28;20133;-74
2023/05/20 02:57:37;;;;;;;9.20;4.00;;;10.40;99.90;;;;;;5008885;28;20056;-74
2023/05/20 03:00:10;;;;;;;6.40;3.53;;;10.40;99.90;;;;;;5008813;28;20108;-75
2023/05/20 03:02:38;;;;;;;10.10;4.07;;;10.40;99.90;;;;;;4975463;28;20048;-73
2023/05/20 03:05:06;;;;;;;5.25;3.88;;;10.50;99.90;;;;;;4994389;28;20112;-74
2023/05/20 03:07:36;;;;;;;8.52;3.80;;;10.50;99.90;;;;;;4991188;28;20105;-74
2023/05/20 03:10:05;;;;;;;8.35;4.00;;;10.60;99.90;;;;;;4992275;28;20061;-74
2023/05/20 03:12:33;;;;;;;5.65;3.95;;;10.60;99.90;;;;;;5010002;28;20137;-74
2023/05/20 03:15:01;;;;;;;5.43;3.72;;;10.60;99.90;;;;;;4994266;28;20479;-74
2023/05/20 03:17:34;;;;;;;6.68;3.80;;;10.70;99.90;;;;;;4976282;28;20092;-75
2023/05/20 03:20:02;;;;;;;6.47;3.75;;;10.70;99.90;;;;;;4975474;28;20509;-75
2023/05/20 03:22:33;;;;;;;9.55;3.90;;;10.80;99.90;;;;;;4996612;28;20560;-75
2023/05/20 03:25:01;;;;;;;10.68;4.07;;;10.90;99.90;;;;;;5008348;28;20141;-75
2023/05/20 03:27:35;;;;;;;9.10;3.90;;;10.90;99.90;;;;;;5009085;28;20088;-75
2023/05/20 03:30:04;;;;;;;13.80;3.90;;;10.90;99.90;;;;;;4976231;28;20084;-75
2023/05/20 03:32:35;;;;;;;6.88;4.25;;;10.90;99.90;;;;;;4978563;28;20041;-74
2023/05/20 03:35:03;;;;;;;9.38;4.20;;;11.00;99.90;;;;;;4991965;28;20148;-75
2023/05/20 03:37:32;;;;;;;13.60;4.07;;;11.10;99.90;;;;;;4990750;28;20140;-75
2023/05/20 03:40:00;;;;;;;5.13;3.40;;;11.10;99.90;;;;;;5008512;28;20053;-74
2023/05/20 03:42:28;;;;;;;5.35;3.22;;;11.20;99.90;;;;;;4995323;28;20041;-74
2023/05/20 03:44:56;;;;;;;6.30;3.50;;;11.20;99.90;;;;;;4975193;28;20449;-74
2023/05/20 03:47:24;;;;;;;6.50;3.50;;;11.30;99.90;;;;;;4991530;28;20057;-75
2023/05/20 03:49:53;;;;;;;5.65;3.47;;;11.30;99.90;;;;;;4998531;28;20050;-75
2023/05/20 03:52:20;;;;;;;4.82;3.42;;;11.30;99.90;;;;;;4995200;28;20046;-75
2023/05/20 03:54:48;;;;;;;7.22;2.95;;;11.40;99.90;;;;;;5011621;28;20053;-75
2023/05/20 03:57:15;;;;;;;2.78;2.25;;;11.40;99.90;;;;;;5012368;28;20052;-75
2023/05/20 03:59:43;;;;;;;3.58;2.47;;;11.50;99.90;;;;;;4986243;28;20430;-75
2023/05/20 04:02:10;;;;;;;3.63;2.70;;;11.50;99.90;;;;;;5011199;28;20042;-76
2023/05/20 04:04:38;;;;;;;5.45;2.60;;;11.60;99.90;;;;;;4978766;28;20123;-76
2023/05/20 04:07:07;;;;;;;5.90;3.03;;;11.70;99.90;;;;;;5012113;28;20140;-74
2023/05/20 04:09:35;;;;;;;6.53;2.47;;;11.80;99.90;;;;;;5007293;28;20050;-74
2023/05/20 04:12:05;;;;;;;3.72;2.78;;;11.90;99.90;;;;;;4976947;28;20052;-74
2023/05/20 04:14:34;;;;;;;6.85;2.75;;;11.90;99.90;;;;;;4977613;28;20050;-75
2023/05/20 04:17:02;;;;;;;4.45;2.80;;;12.10;99.90;;;;;;4994988;28;20565;-75
2023/05/20 04:19:30;;;;;;;6.53;2.30;;;12.10;99.90;;;;;;5012555;28;20512;-75
2023/05/20 04:21:57;;;;;;;3.17;2.00;;;12.20;99.90;;;;;;4995932;28;20068;-75
2023/05/20 04:24:26;;;;;;;4.18;3.03;;;12.30;99.90;;;;;;4994495;28;20081;-75
2023/05/20 04:26:54;;;;;;;7.15;2.45;;;12.40;99.90;;;;;;5016003;28;20421;-75
2023/05/20 04:29:21;;;;;;;8.25;2.42;;;12.50;99.90;;;;;;4994610;28;20148;-75
2023/05/20 04:31:49;;;;;;;4.85;2.22;;;12.60;99.90;;;;;;5012947;28;20569;-75
2023/05/20 04:34:18;;;;;;;3.35;2.60;;;12.60;99.90;;;;;;4977719;28;20092;-74
2023/05/20 04:36:46;;;;;;;3.33;2.38;;;12.70;99.90;;;;;;5002453;28;20062;-73
2023/05/20 04:39:14;;;;;;;4.25;1.75;;;12.70;99.90;;;;;;4988400;28;20042;-74
2023/05/20 04:41:43;;;;;;;3.88;2.13;;;12.80;99.90;;;;;;4993260;28;20049;-73
2023/05/20 04:44:12;;;;;;;2.63;1.63;;;12.80;99.90;;;;;;4993797;28;20461;-74
2023/05/20 04:46:40;;;;;;;6.18;2.22;;;12.90;99.90;;;;;;4968081;28;20421;-75
2023/05/20 04:49:07;;;;;;;3.75;1.80;;;13.00;99.90;;;;;;4994299;28;20192;-74
2023/05/20 04:51:35;;;;;;;5.53;2.50;;;13.00;99.90;;;;;;4994516;28;20054;-74
2023/05/20 04:54:03;;;;;;;4.13;2.55;;;13.10;99.90;;;;;;5015136;28;20072;-74
2023/05/20 04:56:30;;;;;;;5.50;2.60;;;13.20;99.90;;;;;;5013108;28;20041;-75
2023/05/20 04:58:59;;;;;;;5.57;2.40;;;13.20;99.90;;;;;;4994223;28;20176;-74
2023/05/20 05:01:26;;;;;;;7.78;2.50;;;13.20;99.90;;;;;;4992365;28;20538;-75
2023/05/20 05:03:54;;;;;;;5.00;2.50;;;13.30;99.90;;;;;;4995720;28;20050;-76
2023/05/20 05:06:22;;;;;;;8.00;2.50;;;13.40;99.90;;;;;;5011681;28;20104;-75
2023/05/20 05:08:50;;;;;;;8.18;2.92;;;13.50;99.90;;;;;;5011640;28;20127;-74
2023/05/20 05:11:17;;;;;;;6.55;3.03;;;13.60;99.90;;;;;;4978329;28;20135;-75
2023/05/20 05:13:46;;;;;;;5.47;2.70;;;13.80;99.90;;;;;;4995403;28;20076;-74
2023/05/20 05:16:16;;;;;;;4.05;2.90;;;13.90;99.90;;;;;;4976286;28;20585;-74
2023/05/20 05:18:43;;;;;;;10.65;3.20;;;14.10;99.90;;;;;;4975905;28;20498;-74
2023/05/20 05:21:11;;;;;;;6.30;3.08;;;14.20;99.90;;;;;;5006757;28;20046;-75
2023/05/20 05:23:41;;;;;;;6.45;2.70;;;14.40;99.90;;;;;;4975287;28;20049;-75
2023/05/20 05:26:09;;;;;;;4.70;2.28;;;14.50;99.90;;;;;;5010571;28;20426;-74
2023/05/20 05:28:36;;;;;;;5.18;2.42;;;14.70;99.90;;;;;;4994012;28;20054;-73
2023/05/20 05:31:06;;;;;;;4.63;3.05;;;15.00;99.90;;;;;;4990669;28;20092;-74
2023/05/20 05:33:35;;;;;;;7.32;3.50;;;15.40;99.90;;;;;;4993982;28;20054;-74
2023/05/20 05:36:04;;;;;;;7.80;2.40;;;15.90;99.90;;;;;;4993627;28;20118;-75
2023/05/20 05:38:31;;;;;;;4.72;2.58;;;16.40;99.90;;;;;;4986548;28;20141;-74
2023/05/20 05:40:59;;;;;;;6.25;2.50;;;17.00;99.90;;;;;;5009592;28;20132;-80
2023/05/20 05:43:27;;;;;;;6.93;3.05;;;17.40;99.90;;;;;;4994441;28;20084;-80
2023/05/20 05:45:55;;;;;;;7.07;2.53;;;17.90;99.90;;;;;;4988880;28;20049;-80
2023/05/20 05:48:23;;;;;;;5.40;2.42;;;18.20;99.90;;;;;;5021983;28;20053;-75
2023/05/20 05:50:53;;;;;;;8.07;3.47;;;18.60;99.90;;;;;;4993841;28;20584;-75
2023/05/20 05:53:22;;;;;;;6.70;2.90;;;18.90;99.90;;;;;;4994819;28;20046;-75
2023/05/20 05:55:50;;;;;;;4.75;2.40;;;19.30;99.90;;;;;;5011302;28;20518;-75
2023/05/20 05:58:19;;;;;;;5.43;2.58;;;19.60;98.00;;;;;;4997430;28;20062;-76
2023/05/20 06:00:47;;;;;;;6.47;2.72;;;20.00;96.70;;;;;;4990274;28;20543;-76
2023/05/20 06:03:15;;;;;;;6.32;2.67;;;20.40;93.90;;;;;;4973933;28;20058;-81
2023/05/20 06:05:46;;;;;;;9.60;5.32;;;20.70;93.00;;;;;;4984456;28;20080;-80
2023/05/20 06:08:17;;;;;;;6.88;4.50;;;21.00;91.70;;;;;;5014139;28;20061;-80
2023/05/20 06:10:48;;;;;;;8.20;3.08;;;21.20;90.40;;;;;;4978989;28;20123;-81
2023/05/20 06:13:17;;;;;;;6.77;2.90;;;21.60;88.30;;;;;;4993298;28;20454;-80
2023/05/20 06:15:45;;;;;;;4.90;2.25;;;21.80;84.50;;;;;;4978158;28;20042;-81
2023/05/20 06:18:13;;;;;;;7.72;3.58;;;22.10;82.60;;;;;;4993557;28;20529;-81
2023/05/20 06:20:40;;;;;;;8.88;4.43;;;22.30;81.70;;;;;;4993745;28;20054;-81
2023/05/20 06:23:10;;;;;;;5.40;2.92;;;22.40;79.20;;;;;;4991276;28;20108;-79
2023/05/20 06:25:48;;;;;;;5.43;2.55;;;22.70;76.20;;;;;;4980321;28;20042;-78
2023/05/20 06:28:16;;;;;;;10.00;2.63;;;23.00;74.90;;;;;;4976709;28;20089;-78
2023/05/20 06:30:43;;;;;;;5.28;3.08;;;23.40;73.40;;;;;;4992202;28;20046;-80
2023/05/20 06:33:11;;;;;;;6.68;2.38;;;23.70;72.00;;;;;;4982437;28;20046;-79
2023/05/20 06:35:40;;;;;;;8.50;2.80;;;24.00;70.50;;;;;;4995325;28;20096;-80
2023/05/20 06:38:07;;;;;;;7.35;3.20;;;24.30;70.00;;;;;;4980763;28;20050;-79
2023/05/20 06:40:35;;;;;;;7.07;2.42;;;23.80;68.80;;;;;;4990239;28;20410;-80
2023/05/20 06:43:04;;;;;;;3.53;1.95;;;23.70;69.10;;;;;;4987533;28;20454;-76
2023/05/20 06:46:01;;;;;;;4.18;2.97;;;24.00;68.00;;;;;;4931738;28;20192;-75
2023/05/20 06:48:34;;;;;;;4.68;2.42;;;24.30;67.90;;;;;;4984026;28;20038;-75
2023/05/20 06:51:02;;;;;;;8.43;2.90;;;24.60;66.30;;;;;;4970665;28;20050;-76
2023/05/20 06:53:31;;;;;;;7.97;2.83;;;24.90;65.40;;;;;;4985512;28;20061;-80
2023/05/20 06:55:58;;;;;;;7.45;2.85;;;25.20;64.40;;;;;;4989474;28;20145;-80
2023/05/20 06:58:29;;;;;;;4.75;3.05;;;25.40;63.20;;;;;;4986292;28;20054;-80
2023/05/20 07:00:58;;;;;;;11.43;3.33;;;25.60;62.50;;;;;;5005642;28;20054;-81
2023/05/20 07:03:26;;;;;;;11.32;3.17;;;25.90;62.10;;;;;;4984770;28;20560;-80
2023/05/20 07:05:54;;;;;;;7.05;2.92;;;25.70;61.50;;;;;;5013394;28;20053;-81
2023/05/20 07:08:22;;;;;;;5.50;2.95;;;25.60;61.50;;;;;;5030091;28;20095;-79
2023/05/20 07:10:50;;;;;;;9.90;3.05;;;25.60;61.50;;;;;;4993234;28;20057;-81
2023/05/20 07:13:22;;;;;;;10.48;3.35;;;25.60;60.30;;;;;;4990824;28;20542;-81
2023/05/20 07:15:53;;;;;;;8.63;3.10;;;25.50;59.90;;;;;;5007858;28;20562;-81
2023/05/20 07:18:21;;;;;;;8.13;3.08;;;25.70;61.30;;;;;;5030539;28;20057;-81
2023/05/20 07:20:53;;;;;;;6.82;2.75;;;26.00;61.50;;;;;;4961141;28;20050;-80
2023/05/20 07:23:35;;;;;;;4.78;2.80;;;26.40;59.70;;;;;;4989513;28;20074;-80
2023/05/20 07:26:03;;;;;;;7.43;3.03;;;26.70;58.80;;;;;;4966884;28;20099;-81
2023/05/20 07:28:30;;;;;;;7.22;2.95;;;26.90;57.70;;;;;;4988614;28;20043;-81
2023/05/20 07:30:59;;;;;;;9.50;2.42;;;27.10;57.30;;;;;;4975092;28;20043;-79
2023/05/20 07:33:30;;;;;;;9.20;2.57;;;27.60;56.40;;;;;;4990990;28;20050;-79
2023/05/20 07:35:58;;;;;;;6.45;2.90;;;28.20;57.20;;;;;;4988606;28;20526;-79
2023/05/20 07:38:27;;;;;;;7.82;3.25;;;28.30;55.80;;;;;;4991794;28;20042;-79
2023/05/20 07:40:59;;;;;;;7.03;2.45;;;28.30;55.80;;;;;;5003538;28;20052;-79
2023/05/20 07:43:28;;;;;;;6.07;2.90;;;28.50;55.80;;;;;;4969910;28;20503;-74
2023/05/20 07:45:58;;;;;;;6.03;2.72;;;28.40;56.40;;;;;;4987191;28;20049;-73
2023/05/20 07:48:26;;;;;;;4.55;2.75;;;28.50;55.50;;;;;;5004565;28;20050;-74
2023/05/20 07:50:56;;;;;;;4.65;2.50;;;28.40;55.30;;;;;;4994154;28;20045;-74
2023/05/20 07:53:24;;;;;;;7.28;2.90;;;28.50;55.30;;;;;;4997714;28;20115;-74
2023/05/20 07:55:52;;;;;;;10.70;3.40;;;28.80;55.00;;;;;;5011612;28;20056;-76
2023/05/20 07:58:20;;;;;;;5.28;2.70;;;28.90;53.40;;;;;;4987201;28;20541;-75
2023/05/20 08:00:47;;;;;;;5.55;3.10;;;29.00;54.20;;;;;;4992541;28;20046;-74
2023/05/20 08:03:18;;;;;;;7.95;3.03;;;29.00;53.70;;;;;;4976599;28;20076;-74
2023/05/20 08:06:05;;;;;;;6.47;2.40;;;29.30;53.60;;;;;;4993154;28;20085;-74
2023/05/20 08:08:33;;;;;;;6.60;2.25;;;29.50;53.10;;;;;;5010099;28;20046;-74
2023/05/20 08:11:08;;;;;;;7.25;2.90;;;29.80;52.00;;;;;;4994892;28;20054;-81
2023/05/20 08:13:39;;;;;;;11.18;2.60;;;29.70;51.80;;;;;;4989451;28;20465;-77
2023/05/20 08:16:09;;;;;;;9.23;3.05;;;29.70;51.20;;;;;;4990517;28;20145;-84
2023/05/20 08:18:38;;;;;;;4.13;2.33;;;29.70;51.20;;;;;;4995518;28;20494;-76
2023/05/20 08:21:07;;;;;;;5.90;2.60;;;29.70;51.20;;;;;;4995540;28;20057;-80
2023/05/20 08:23:35;;;;;;;4.82;2.42;;;29.50;51.40;;;;;;4975073;28;20049;-76
2023/05/20 08:26:06;;;;;;;8.48;2.50;;;29.10;51.70;;;;;;5004829;28;20058;-75
2023/05/20 08:28:38;;;;;;;5.00;2.15;;;29.00;50.90;;;;;;5001650;28;20041;-76
2023/05/20 08:31:06;;;;;;;9.48;2.92;;;28.80;50.60;;;;;;4977805;28;20104;-76
2023/05/20 08:33:35;;;;;;;6.57;2.63;;;28.70;50.90;;;;;;4985816;28;20141;-75
2023/05/20 08:36:05;;;;;;;4.60;2.58;;;28.80;50.90;;;;;;4999751;28;20070;-75
2023/05/20 08:38:35;;;;;;;3.75;2.30;;;28.60;51.30;;;;;;4973137;28;20439;-79
2023/05/20 08:41:03;;;;;;;6.25;2.47;;;27.70;52.40;;;;;;5005991;28;20100;-75
2023/05/20 08:43:31;;;;;;;4.47;2.40;;;26.50;53.70;;;;;;5006280;28;20045;-82
2023/05/20 08:46:01;;;;;;;8.13;3.33;;;26.10;56.40;;;;;;4976251;28;20038;-76
2023/05/20 08:48:31;;;;;;;9.48;2.47;;;26.30;55.60;;;;;;4982190;28;20050;-80
2023/05/20 08:51:00;;;;;;;7.95;2.15;;;27.40;54.20;;;;;;4998289;28;20041;-80
2023/05/20 08:53:31;;;;;;;4.28;2.28;;;28.30;53.30;;;;;;5002534;28;20045;-80
2023/05/20 08:56:01;;;;;;;5.53;2.28;;;28.40;52.30;;;;;;4980028;28;20057;-82
2023/05/20 08:58:31;;;;;;;10.15;2.08;;;29.00;52.00;;;;;;4997465;28;20052;-81
2023/05/20 09:01:00;;;;;;;6.57;2.05;;;29.60;50.60;;;;;;4984623;28;20050;-83
2023/05/20 09:03:31;;;;;;;8.00;2.13;;;30.30;49.70;;;;;;4997611;28;20054;-81
2023/05/20 09:06:06;;;;;;;5.93;2.53;;;30.90;49.20;;;;;;4983036;28;20046;-82
2023/05/20 09:08:36;;;;;;;4.95;2.30;;;31.30;48.00;;;;;;5000301;28;20050;-83
2023/05/20 09:11:03;;;;;;;4.47;2.33;;;31.70;48.70;;;;;;5004862;28;20042;-81
2023/05/20 09:13:32;;;;;;;8.02;3.10;;;31.90;47.00;;;;;;4997649;28;20054;-80
2023/05/20 09:16:01;;;;;;;3.58;1.77;;;32.20;46.90;;;;;;5003578;28;20313;-81
2023/05/20 09:18:29;;;;;;;5.70;2.85;;;31.50;46.70;;;;;;4989425;28;20061;-80
2023/05/20 09:21:00;;;;;;;5.18;2.53;;;30.00;49.00;;;;;;5000295;28;20041;-81
2023/05/20 09:23:31;;;;;;;7.67;2.23;;;29.30;50.40;;;;;;5003070;28;20120;-81
2023/05/20 09:26:02;;;;;;;6.82;2.00;;;29.60;50.20;;;;;;4998225;28;20300;-79
2023/05/20 09:28:30;;;;;;;4.32;2.35;;;29.10;48.90;;;;;;4980597;28;20054;-80
2023/05/20 09:30:59;;;;;;;7.80;6.95;;;29.40;49.40;;;;;;4985589;28;20105;-78
2023/05/20 09:33:30;;;;;;;6.18;2.15;;;30.40;49.60;;;;;;4980620;28;20566;-75
2023/05/20 09:36:04;;;;;;;5.47;2.10;;;30.40;47.80;;;;;;5001468;28;20061;-74
2023/05/20 09:38:40;;;;;;;7.50;2.17;;;28.90;48.80;;;;;;4992392;28;20146;-74
2023/05/20 09:41:14;;;;;;;4.07;2.40;;;27.60;50.70;;;;;;4988232;28;20058;-82
2023/05/20 09:43:42;;;;;;;5.78;2.33;;;26.30;51.20;;;;;;4998619;28;20071;-79
2023/05/20 09:46:09;;;;;;;6.18;2.45;;;25.40;53.30;;;;;;5008797;28;20080;-81
2023/05/20 09:48:41;;;;;;;6.45;2.22;;;24.70;54.80;;;;;;5009336;28;20108;-74
2023/05/20 09:51:09;;;;;;;5.82;2.38;;;24.40;55.10;;;;;;5009477;28;20073;-77
2023/05/20 09:53:37;;;;;;;5.80;2.13;;;24.50;56.30;;;;;;5008782;28;20069;-75
2023/05/20 09:56:05;;;;;;;10.48;2.40;;;25.90;56.00;;;;;;5008970;28;20140;-75
2023/05/20 09:58:36;;;;;;;10.55;6.43;;;27.50;53.50;;;;;;5008265;28;20049;-76
2023/05/20 10:01:04;;;;;;;5.43;3.08;;;28.90;51.70;;;;;;5002245;28;20054;-74
2023/05/20 10:03:32;;;;;;;15.63;2.75;;;29.80;49.40;;;;;;5010761;28;20056;-74
2023/05/20 10:06:19;;;;;;;5.72;2.55;;;29.40;49.70;;;;;;5002291;28;20060;-75
2023/05/20 10:09:23;;;;;;;5.95;2.30;;;28.70;50.90;;;;;;4992551;28;20145;-75
2023/05/20 10:12:19;;;;;;;10.68;3.92;;;28.80;51.90;;;;;;4997613;28;20058;-77
2023/05/20 10:14:58;;;;;;;7.25;2.40;;;29.80;51.50;;;;;;5009364;28;20046;-80
2023/05/20 10:17:40;;;;;;;5.53;2.63;;;30.70;49.80;;;;;;5013125;28;20403;-78
2023/05/20 10:20:10;;;;;;;9.18;2.40;;;31.60;47.80;;;;;;5013247;28;20053;-78
2023/05/20 10:22:39;;;;;;;3.88;1.80;;;32.10;46.00;;;;;;5009561;28;20089;-76
2023/05/20 10:25:13;;;;;;;2.85;1.90;;;32.60;46.10;;;;;;4978255;28;20534;-76
2023/05/20 10:27:45;;;;;;;3.53;1.77;;;33.00;45.20;;;;;;4983682;28;20054;-77
2023/05/20 10:30:19;;;;;;;7.45;2.10;;;33.10;43.50;;;;;;5008238;28;20055;-76
2023/05/20 10:32:56;;;;;;;2.72;1.60;;;31.90;44.60;;;;;;5001388;28;20046;-76
2023/05/20 10:35:26;;;;;;;3.47;1.70;;;30.60;44.70;;;;;;5005354;28;20423;-77
2023/05/20 10:38:06;;;;;;;6.80;1.83;;;29.20;46.60;;;;;;4999108;28;20145;-78
2023/05/20 10:40:34;;;;;;;9.20;3.15;;;28.10;47.90;;;;;;5009452;28;20070;-84
2023/05/20 10:43:11;;;;;;;4.65;1.55;;;27.00;49.00;;;;;;4998229;28;20057;-81
2023/05/20 10:45:50;;;;;;;6.57;1.65;;;26.10;50.40;;;;;;4987160;28;20219;-84
2023/05/20 10:48:27;;;;;;;5.25;2.22;;;25.30;50.10;;;;;;5005411;28;20041;-83
2023/05/20 10:50:57;;;;;;;3.92;2.00;;;24.60;51.70;;;;;;5001530;28;20050;-77
2023/05/20 10:53:26;;;;;;;5.20;1.38;;;24.20;52.80;;;;;;4980651;28;20507;-77
2023/05/20 10:55:55;;;;;;;6.25;1.88;;;24.00;52.70;;;;;;4990604;28;20096;-77
2023/05/20 10:58:24;;;;;;;5.38;4.25;;;23.80;53.50;;;;;;4971485;28;20069;-76
2023/05/20 11:00:55;;;;;;;5.55;2.42;;;23.90;54.10;;;;;;4989292;28;20065;-77
2023/05/20 11:03:25;;;;;;;4.88;2.20;;;24.70;53.40;;;;;;4984447;28;20451;-77
2023/05/20 11:05:53;;;;;;;12.05;2.50;;;25.60;52.20;;;;;;5004495;28;20046;-79
2023/05/20 11:08:21;;;;;;;4.30;1.70;;;26.90;51.20;;;;;;5005160;28;20048;-81
2023/05/20 11:11:55;;;;;;;8.27;2.45;;;28.60;49.10;;;;;;5005419;28;20129;-78
2023/05/20 11:14:29;;;;;;;7.68;2.35;;;30.40;47.40;;;;;;4992663;28;20041;-82
2023/05/20 11:17:10;;;;;;;4.53;2.42;;;32.10;44.10;;;;;;4996958;28;20044;-78
2023/05/20 11:19:38;;;;;;;3.17;2.30;;;33.40;43.60;;;;;;5004919;28;20591;-76
2023/05/20 11:22:08;;;;;;;3.13;2.30;;;33.70;42.80;;;;;;5008123;28;20045;-78
2023/05/20 11:24:36;;;;;;;3.42;1.77;;;33.10;43.00;;;;;;4991204;28;20057;-76
2023/05/20 11:27:04;;;;;;;5.00;2.28;;;31.70;43.60;;;;;;5008902;28;20050;-76
2023/05/20 11:29:32;;;;;;;4.85;2.03;;;30.30;45.00;;;;;;5003718;28;20069;-81
2023/05/20 11:32:01;;;;;;;4.53;1.80;;;28.90;46.10;;;;;;5003256;28;20096;-80
2023/05/20 11:34:35;;;;;;;2.50;1.60;;;27.80;48.00;;;;;;5003744;28;20138;-80
2023/05/20 11:37:03;;;;;;;4.10;1.58;;;26.90;49.20;;;;;;4992996;28;20058;-81
2023/05/20 11:39:31;;;;;;;5.20;1.60;;;26.10;50.50;;;;;;4967416;28;20097;-80
2023/05/20 11:41:59;;;;;;;6.03;2.08;;;25.50;51.30;;;;;;5002456;28;20128;-82
2023/05/20 11:44:26;;;;;;;3.70;1.65;;;25.10;51.50;;;;;;5009047;28;20045;-83
2023/05/20 11:47:02;;;;;;;3.92;2.10;;;24.60;52.50;;;;;;4980283;28;20054;-81
2023/05/20 11:49:40;;;;;;;2.33;1.55;;;24.10;53.30;;;;;;4993163;28;20550;-81
2023/05/20 11:52:11;;;;;;;6.75;2.08;;;23.70;53.70;;;;;;5006005;28;20137;-83
2023/05/20 11:54:41;;;;;;;7.57;1.85;;;23.30;54.50;;;;;;4985255;28;20041;-81
2023/05/20 11:57:11;;;;;;;12.90;2.35;;;23.00;55.10;;;;;;5015311;28;20435;-77
2023/05/20 11:59:39;;;;;;;4.82;2.45;;;22.80;56.10;;;;;;4974463;28;20054;-77
2023/05/20 12:02:14;;;;;;;7.10;3.40;;;22.60;56.20;;;;;;4998865;28;20042;-75
2023/05/20 12:04:43;;;;;;;7.28;3.03;;;22.50;56.40;;;;;;5026823;28;20525;-76
2023/05/20 12:07:14;;;;;;;6.50;2.20;;;22.40;57.70;;;;;;5013439;28;20074;-75
2023/05/20 12:09:45;;;;;;;7.78;1.95;;;22.30;57.50;;;;;;5019765;28;20057;-81
2023/05/20 12:12:13;;;;;;;6.90;1.83;;;22.40;57.80;;;;;;4994005;28;20506;-81
2023/05/20 12:14:40;;;;;;;3.67;1.63;;;22.60;57.30;;;;;;5009936;28;20185;-80
2023/05/20 12:17:08;;;;;;;8.45;2.00;;;23.00;57.50;;;;;;4991430;28;20136;-81
2023/05/20 12:19:36;;;;;;;3.45;1.92;;;24.10;56.70;;;;;;5009638;28;20516;-80
2023/05/20 12:22:04;;;;;;;4.22;1.92;;;25.50;53.20;;;;;;4987163;28;20517;-80
2023/05/20 12:24:32;;;;;;;7.13;2.20;;;26.70;51.60;;;;;;5007480;28;20057;-80
2023/05/20 12:27:02;;;;;;;9.15;3.00;;;26.80;49.80;;;;;;4979768;28;20060;-79
2023/05/20 12:29:30;;;;;;;10.95;2.17;;;27.00;50.70;;;;;;5007537;28;20136;-78
2023/05/20 12:31:57;;;;;;;9.27;2.05;;;28.10;49.30;;;;;;5011895;28;20088;-79
2023/05/20 12:34:25;;;;;;;8.50;2.30;;;29.30;47.30;;;;;;5011923;28;20052;-81
2023/05/20 12:36:54;;;;;;;5.55;2.15;;;30.70;46.50;;;;;;5010943;28;20678;-81
2023/05/20 12:39:22;;;;;;;4.82;1.95;;;32.00;45.00;;;;;;5009577;28;20798;-76
2023/05/20 12:41:49;;;;;;;3.33;1.30;;;33.10;44.10;;;;;;4993633;28;20050;-77
2023/05/20 12:44:17;;;;;;;5.18;2.17;;;33.40;43.10;;;;;;5009789;28;20089;-79
2023/05/20 12:46:44;;;;;;;2.92;1.83;;;32.60;42.80;;;;;;5007152;28;20052;-83
2023/05/20 12:49:12;;;;;;;4.70;1.92;;;30.90;44.40;;;;;;4994507;28;20046;-82
2023/05/20 12:51:40;;;;;;;8.00;2.35;;;29.20;46.30;;;;;;5008807;28;20049;-85
2023/05/20 12:54:09;;;;;;;3.53;1.73;;;27.80;48.30;;;;;;4998731;28;20083;-85
2023/05/20 12:56:37;;;;;;;4.25;2.08;;;26.60;49.10;;;;;;4992965;28;20050;-82
2023/05/20 12:59:04;;;;;;;3.95;1.85;;;25.70;51.30;;;;;;4994482;28;20081;-84
2023/05/20 13:01:32;;;;;;;8.35;2.20;;;25.00;51.40;;;;;;5008546;28;20064;-82